Última Atualização: 12:50 - 20/03/2019

Estação Hora Leitura 15 min 1 h 4 h 24 h 96 h No Mês
1 Vidigal 12:45 0,0 0,0 0,0 49,8 112,6 280,0
2 Urca 12:45 0,0 0,0 6,0 38,2 44,4 144,4
3 Rocinha 12:45 0,0 0,0 0,2 38,8 107,0 291,8
4 Tijuca 12:45 0,0 0,0 1,4 30,0 53,4 223,0
5 Santa Teresa 12:45 0,0 0,0 0,2 21,0 32,2 155,2
6 Copacabana 12:45 0,0 0,0 0,6 35,4 112,6 281,4
7 Grajaú 12:45 0,0 0,0 1,6 22,0 45,2 209,6
8 Ilha do Governador 12:45 0,0 0,0 0,0 23,4 25,4 152,6
9 Penha 12:45 0,0 0,2 0,6 31,2 45,6 248,2
10 Madureira 12:45 0,0 0,0 4,6 18,4 33,8 185,4
11 Irajá 12:45 0,0 0,0 1,2 15,6 63,0 187,8
12 Bangu 12:45 0,0 0,2 0,2 18,2 43,0 126,8
13 Piedade 12:45 0,0 0,0 2,2 18,4 46,6 237,6
14 Jacarepaguá/Tanque 12:45 0,0 0,0 1,6 19,6 71,4 223,6
15 Saúde 12:45 0,0 0,0 1,2 17,4 36,4 168,4
16 Jardim Botânico 12:45 0,0 0,0 0,0 32,6 73,2 266,4
17 Barra/Barrinha 12:45 0,0 0,0 0,0 56,2 132,2 277,8
18 Jacarepaguá/Cidade de Deus 12:45 0,0 0,0 2,4 31,2 50,8 157,4
19 Barra/Riocentro 12:45 0,0 0,0 0,2 43,4 59,8 204,6
20 Guaratiba 12:45 0,0 0,0 0,0 67,0 87,2 266,2
21 Est. Grajaú/Jacarepaguá 12:45 0,0 0,0 1,4 27,6 66,0 206,4
22 Santa Cruz 12:45 0,0 4,0 4,0 17,8 79,4 257,8
23 Grande Méier 12:45 0,0 0,0 1,2 19,0 41,2 185,2
24 Anchieta 12:45 0,2 6,6 6,6 26,6 91,2 196,0
25 Grota Funda 12:45 0,0 0,0 1,2 47,2 65,2 226,8
26 Campo Grande 12:45 0,0 0,0 0,0 21,6 50,4 141,4
27 Sepetiba 12:45 0,0 0,0 0,0 36,0 76,6 189,6
28 Alto da Boa Vista 12:45 0,0 0,0 1,4 45,0 98,6 311,0
29 Av. Brasil/Mendanha 12:45 0,0 0,0 0,4 19,6 63,4 176,2
30 Recreio dos Bandeirantes 12:45 0,0 0,0 0,8 45,2 93,2 263,6
31 Laranjeiras 12:45 0,0 0,0 0,0 17,8 23,8 147,0
32 São Cristóvão 12:45 0,0 0,0 0,4 21,2 35,8 202,2
33 Tijuca/Muda 12:45 0,0 0,0 0,8 31,2 50,8 246,2
Dados Meteorológicos
Estação Hora Direção Vento (graus) Velocidade Vento (Km/h) Temperatura (celsius) Pressão (hPa) Umidade (%)
11 Irajá 12:45 - - 27,4 - -
16 Jardim Botânico 12:45 - - 28,6 - -
19 Barra/Riocentro 12:45 - - 29,9 - 67,2
20 Guaratiba 12:45 225,4 15,2 28,8 1005,2 75,1
22 Santa Cruz 12:45 - - 26,1 - 97,3
28 Alto da Boa Vista 12:45 - - 25,9 - 88,1
32 São Cristóvão 12:45 148,2 7,4 29,9 1004,9 63,5